Time;durP1;ratioP1;P1;durP2;ratioP2;P2;SDS_P1;SDS_P2;PMS_P1;PMS_P2;Temp;Humidity;BMP_temperature;BMP_pressure;BME280_temperature;BME280_humidity;BME280_pressure;Samples;Min_cycle;Max_cycle;Signal;HPM_P1;HPM_P2
2023/05/18 00:00:34;;;;;;;0.40;0.30;;;;;;;13.43;100.00;94775.28;5072108;28;20821;-62
2023/05/18 00:03:02;;;;;;;0.40;0.40;;;;;;;13.45;100.00;94781.09;5073414;28;20464;-62
2023/05/18 00:05:32;;;;;;;0.47;0.47;;;;;;;12.99;100.00;94799.84;5072795;28;20472;-62
2023/05/18 00:08:01;;;;;;;0.73;0.50;;;;;;;12.89;100.00;94797.38;5072743;28;20495;-62
2023/05/18 00:10:30;;;;;;;0.70;0.33;;;;;;;13.29;100.00;94787.81;5073137;28;20746;-62
2023/05/18 00:12:58;;;;;;;0.40;0.30;;;;;;;13.10;100.00;94784.50;5072709;28;20448;-62
2023/05/18 00:15:27;;;;;;;0.40;0.20;;;;;;;13.37;100.00;94784.47;5073415;28;20469;-61
2023/05/18 00:17:56;;;;;;;0.50;0.30;;;;;;;13.46;100.00;94777.34;5073397;28;20445;-61
2023/05/18 00:20:25;;;;;;;0.30;0.20;;;;;;;13.39;100.00;94779.63;5072494;28;20449;-61
2023/05/18 00:22:55;;;;;;;0.60;0.40;;;;;;;13.26;100.00;94777.78;5073347;28;20438;-61
2023/05/18 00:25:23;;;;;;;0.40;0.30;;;;;;;12.96;100.00;94783.69;5072645;28;20981;-61
2023/05/18 00:27:52;;;;;;;0.40;0.20;;;;;;;13.01;100.00;94751.66;5072645;28;20473;-62
2023/05/18 00:30:22;;;;;;;0.30;0.20;;;;;;;13.31;100.00;94767.00;5047198;28;20507;-61
2023/05/18 00:32:51;;;;;;;0.40;0.30;;;;;;;13.41;100.00;94769.47;5072959;28;20433;-61
2023/05/18 00:35:19;;;;;;;0.70;0.53;;;;;;;13.44;100.00;94771.53;5071982;28;20441;-61
2023/05/18 00:37:48;;;;;;;1.27;0.60;;;;;;;13.38;100.00;94770.84;5072867;28;20441;-61
2023/05/18 00:40:18;;;;;;;0.40;0.20;;;;;;;13.44;100.00;94778.72;5072562;28;20504;-61
2023/05/18 00:42:46;;;;;;;0.47;0.40;;;;;;;13.47;100.00;94778.13;5072397;28;20504;-61
2023/05/18 00:45:15;;;;;;;0.40;0.30;;;;;;;13.50;100.00;94774.88;5072462;28;20494;-62
2023/05/18 00:47:43;;;;;;;0.50;0.40;;;;;;;13.22;100.00;94769.63;5072049;28;20445;-62
2023/05/18 00:50:12;;;;;;;3.40;2.00;;;;;;;13.09;100.00;94772.28;5072225;28;20946;-62
2023/05/18 00:52:40;;;;;;;0.40;0.20;;;;;;;12.83;100.00;94768.50;5072458;28;20502;-62
2023/05/18 00:55:12;;;;;;;0.40;0.30;;;;;;;12.80;100.00;94772.56;5072510;28;20480;-62
2023/05/18 00:57:43;;;;;;;0.40;0.30;;;;;;;13.00;100.00;94764.19;5072227;28;20577;-61
2023/05/18 01:00:12;;;;;;;0.40;0.30;;;;;;;13.05;100.00;94752.66;5072224;28;20441;-62
2023/05/18 01:02:44;;;;;;;0.40;0.40;;;;;;;13.18;100.00;94762.53;5071971;28;20984;-61
2023/05/18 01:05:13;;;;;;;0.40;0.20;;;;;;;12.93;100.00;94768.34;5071977;28;20973;-62
2023/05/18 01:07:42;;;;;;;0.40;0.30;;;;;;;12.39;100.00;94674.22;5046802;28;20558;-61
2023/05/18 01:10:12;;;;;;;0.57;0.57;;;;;;;13.14;100.00;94762.31;5072221;28;20441;-61
2023/05/18 01:12:48;;;;;;;0.50;0.50;;;;;;;13.28;100.00;94760.41;5071901;28;20437;-62
2023/05/18 01:15:19;;;;;;;0.30;0.20;;;;;;;13.31;100.00;94772.34;5071201;28;20437;-61
2023/05/18 01:18:03;;;;;;;0.40;0.23;;;;;;;13.23;100.00;94776.50;5072211;28;20912;-61
2023/05/18 01:20:37;;;;;;;0.40;0.27;;;;;;;13.06;100.00;94775.50;5071775;28;20441;-62
2023/05/18 01:23:40;;;;;;;0.80;0.40;;;;;;;12.87;100.00;94782.81;5072182;28;20450;-61
2023/05/18 01:26:15;;;;;;;0.40;0.30;;;;;;;12.90;100.00;94787.53;5071957;28;20444;-61
2023/05/18 01:28:46;;;;;;;0.60;0.50;;;;;;;12.63;100.00;94790.97;5072070;28;20437;-61
2023/05/18 01:31:15;;;;;;;0.40;0.30;;;;;;;12.49;100.00;94798.16;5072066;28;20433;-61
2023/05/18 01:33:43;;;;;;;0.53;0.40;;;;;;;12.03;100.00;94750.31;5071573;28;20453;-61
2023/05/18 01:36:12;;;;;;;3.60;0.63;;;;;;;12.32;100.00;94801.34;5071769;28;20511;-61
2023/05/18 01:38:41;;;;;;;0.40;0.30;;;;;;;12.32;100.00;94777.44;5071744;28;20437;-61
2023/05/18 01:41:20;;;;;;;0.80;0.67;;;;;;;12.92;100.00;94799.47;5071656;28;20515;-61
2023/05/18 01:43:56;;;;;;;2.23;0.30;;;;;;;12.94;100.00;94737.97;5071612;28;20437;-61
2023/05/18 01:46:36;;;;;;;1.13;0.40;;;;;;;13.07;100.00;94790.41;5070750;28;20445;-62
2023/05/18 01:49:14;;;;;;;0.40;0.30;;;;;;;13.18;100.00;94803.22;5071623;28;20960;-62
2023/05/18 01:51:45;;;;;;;0.30;0.30;;;;;;;13.18;100.00;94776.59;5071934;28;20810;-61
2023/05/18 01:54:22;;;;;;;0.40;0.20;;;;;;;13.38;100.00;94801.22;5071415;28;20434;-61
2023/05/18 01:56:54;;;;;;;0.30;0.20;;;;;;;13.22;100.00;94798.88;5071459;28;20505;-62
2023/05/18 01:59:23;;;;;;;0.40;0.33;;;;;;;13.09;100.00;94797.03;5071118;28;20445;-62
2023/05/18 02:01:52;;;;;;;0.80;0.80;;;;;;;12.99;100.00;94805.16;5071607;28;20430;-62
2023/05/18 02:04:27;;;;;;;0.40;0.30;;;;;;;13.04;100.00;94801.63;5066802;28;20452;-62
2023/05/18 02:06:55;;;;;;;0.40;0.30;;;;;;;13.06;100.00;94805.59;5071640;28;20441;-62
2023/05/18 02:09:23;;;;;;;0.40;0.40;;;;;;;12.84;100.00;94810.78;5071648;28;20437;-62
2023/05/18 02:11:53;;;;;;;0.40;0.30;;;;;;;12.71;100.00;94812.34;5071400;28;20441;-61
2023/05/18 02:14:22;;;;;;;0.30;0.30;;;;;;;12.98;100.00;94808.13;5071496;28;20524;-61
2023/05/18 02:16:51;;;;;;;0.40;0.30;;;;;;;13.33;100.00;94816.19;5071122;28;20477;-61
2023/05/18 02:19:20;;;;;;;1.33;0.40;;;;;;;13.25;100.00;94777.00;5071264;28;20499;-62
2023/05/18 02:21:49;;;;;;;0.93;0.63;;;;;;;13.46;100.00;94821.81;5070800;28;20976;-62
2023/05/18 02:24:17;;;;;;;1.23;0.70;;;;;;;12.79;100.00;94776.31;5071611;28;20442;-62
2023/05/18 02:26:45;;;;;;;0.50;0.30;;;;;;;12.84;100.00;94828.59;5070666;28;20469;-62
2023/05/18 02:29:15;;;;;;;0.50;0.50;;;;;;;12.60;100.00;94820.78;5071359;28;20495;-62
2023/05/18 02:31:44;;;;;;;0.40;0.30;;;;;;;12.68;100.00;94823.56;5070809;28;20430;-62
2023/05/18 02:34:14;;;;;;;0.90;0.67;;;;;;;12.65;100.00;94824.16;5070972;28;20473;-62
2023/05/18 02:36:42;;;;;;;0.70;0.63;;;;;;;13.02;100.00;94819.75;5071079;28;20473;-62
2023/05/18 02:39:11;;;;;;;0.40;0.30;;;;;;;13.44;100.00;94805.34;5071273;28;20430;-62
2023/05/18 02:41:39;;;;;;;0.40;0.30;;;;;;;13.41;100.00;94785.44;5070846;28;21018;-62
2023/05/18 02:44:07;;;;;;;2.40;0.70;;;;;;;13.57;100.00;94807.19;5071011;28;20445;-62
2023/05/18 02:46:37;;;;;;;0.40;0.30;;;;;;;13.47;100.00;94805.53;5070965;28;21008;-62
2023/05/18 02:49:05;;;;;;;0.50;0.30;;;;;;;13.53;100.00;94798.22;5071234;28;20450;-62
2023/05/18 02:51:34;;;;;;;0.30;0.20;;;;;;;13.79;100.00;94805.34;5071176;28;20440;-62
2023/05/18 02:54:03;;;;;;;0.30;0.30;;;;;;;13.82;100.00;94777.31;5071059;28;20437;-62
2023/05/18 02:56:31;;;;;;;0.40;0.30;;;;;;;13.69;100.00;94791.47;5071017;28;20437;-62
2023/05/18 02:58:59;;;;;;;0.90;0.73;;;;;;;12.72;100.00;94797.97;5074100;28;20437;-62
2023/05/18 03:01:28;;;;;;;0.53;0.40;;;;;;;12.98;100.00;94808.91;5074725;28;20437;-61
2023/05/18 03:03:58;;;;;;;3.30;0.90;;;;;;;13.11;100.00;94807.34;5074224;28;20441;-61
2023/05/18 03:06:29;;;;;;;0.40;0.30;;;;;;;12.84;100.00;94815.31;5074707;28;20491;-62
2023/05/18 03:08:57;;;;;;;0.60;0.40;;;;;;;12.31;100.00;94821.06;5074447;28;20434;-61
2023/05/18 03:11:26;;;;;;;0.40;0.40;;;;;;;12.19;100.00;94820.72;5074429;28;20580;-61
2023/05/18 03:13:54;;;;;;;0.50;0.50;;;;;;;12.34;100.00;94823.13;5074187;28;20950;-61
2023/05/18 03:16:27;;;;;;;0.73;0.70;;;;;;;12.34;100.00;94819.69;5074519;28;20438;-61
2023/05/18 03:18:57;;;;;;;0.43;0.40;;;;;;;12.52;100.00;94790.34;5073892;28;20516;-61
2023/05/18 03:21:34;;;;;;;1.60;0.63;;;;;;;12.47;100.00;94819.69;5074054;28;20438;-62
2023/05/18 03:24:03;;;;;;;0.60;0.60;;;;;;;12.77;100.00;94825.56;5073885;28;20875;-62
2023/05/18 03:26:32;;;;;;;0.60;0.30;;;;;;;13.11;100.00;94824.09;5073910;28;20557;-62
2023/05/18 03:29:00;;;;;;;0.77;0.77;;;;;;;13.05;100.00;94821.81;5074190;28;20438;-61
2023/05/18 03:31:29;;;;;;;0.33;0.23;;;;;;;12.95;100.00;94819.38;5073933;28;20516;-62
2023/05/18 03:33:57;;;;;;;0.40;0.30;;;;;;;12.47;100.00;94818.94;5073923;28;20465;-62
2023/05/18 03:36:27;;;;;;;0.40;0.30;;;;;;;12.54;100.00;94821.97;5073708;28;20429;-62
2023/05/18 03:38:56;;;;;;;0.80;0.70;;;;;;;12.65;100.00;94824.16;5073758;28;20477;-62
2023/05/18 03:41:24;;;;;;;0.40;0.33;;;;;;;12.80;100.00;94828.41;5074086;28;20862;-62
2023/05/18 03:43:53;;;;;;;0.53;0.53;;;;;;;12.99;100.00;94823.00;5073788;28;20441;-62
2023/05/18 03:46:21;;;;;;;0.30;0.20;;;;;;;12.75;100.00;94839.91;5073568;28;20426;-62
2023/05/18 03:48:50;;;;;;;0.70;0.30;;;;;;;12.82;100.00;94852.06;5061055;28;20526;-70
2023/05/18 03:51:18;;;;;;;0.57;0.30;;;;;;;12.65;100.00;94856.06;5073052;28;20479;-60
2023/05/18 03:53:51;;;;;;;0.50;0.50;;;;;;;12.57;100.00;94859.38;5072836;28;20980;-62
2023/05/18 03:56:19;;;;;;;0.30;0.30;;;;;;;12.67;100.00;94851.22;5072783;28;20445;-61
2023/05/18 03:58:50;;;;;;;0.50;0.30;;;;;;;12.92;100.00;94846.56;5072899;28;20473;-61
2023/05/18 04:01:18;;;;;;;0.40;0.30;;;;;;;12.84;100.00;94855.22;5073787;28;20832;-61
2023/05/18 04:03:46;;;;;;;0.37;0.27;;;;;;;12.95;100.00;94856.59;5073437;28;20998;-61
2023/05/18 04:06:15;;;;;;;0.40;0.20;;;;;;;12.92;100.00;94851.88;5073554;28;20503;-61
2023/05/18 04:08:45;;;;;;;0.40;0.30;;;;;;;12.88;100.00;94840.22;5072300;28;20438;-61
2023/05/18 04:11:14;;;;;;;0.37;0.30;;;;;;;12.89;100.00;94841.81;5073029;28;20445;-61
2023/05/18 04:13:43;;;;;;;0.40;0.33;;;;;;;13.02;100.00;94838.38;5072545;28;20473;-61
2023/05/18 04:16:12;;;;;;;0.40;0.30;;;;;;;13.14;100.00;94842.16;5073038;28;20464;-61
2023/05/18 04:18:41;;;;;;;0.50;0.30;;;;;;;13.20;100.00;94840.97;5072306;28;20474;-61
2023/05/18 04:21:10;;;;;;;0.30;0.30;;;;;;;13.11;100.00;94841.94;5072802;28;20516;-61
2023/05/18 04:23:39;;;;;;;0.30;0.30;;;;;;;13.30;100.00;94835.44;5072851;28;20457;-61
2023/05/18 04:26:08;;;;;;;0.60;0.60;;;;;;;13.20;100.00;94840.19;5072959;28;20520;-62
2023/05/18 04:28:37;;;;;;;0.40;0.33;;;;;;;13.27;100.00;94833.38;5072708;28;20438;-61
2023/05/18 04:31:06;;;;;;;1.03;0.90;;;;;;;13.50;100.00;94831.56;5073133;28;20456;-61
2023/05/18 04:33:34;;;;;;;1.63;0.63;;;;;;;12.88;100.00;94834.91;5046789;28;20473;-61
2023/05/18 04:36:03;;;;;;;0.60;0.40;;;;;;;12.37;100.00;94848.34;5072743;28;20438;-61
2023/05/18 04:38:34;;;;;;;3.00;2.90;;;;;;;12.08;100.00;94848.53;5072462;28;20588;-58
2023/05/18 04:41:05;;;;;;;2.20;1.27;;;;;;;12.14;100.00;94841.28;5071942;28;20445;-59
2023/05/18 04:43:35;;;;;;;0.60;0.60;;;;;;;12.41;100.00;94841.34;5072054;28;21019;-59
2023/05/18 04:46:05;;;;;;;2.67;1.17;;;;;;;12.25;100.00;94845.31;5072295;28;20437;-58
2023/05/18 04:48:35;;;;;;;0.50;0.43;;;;;;;12.03;100.00;94851.25;5072791;28;20441;-59
2023/05/18 04:51:04;;;;;;;0.40;0.30;;;;;;;12.22;100.00;94857.31;5072091;28;20441;-59
2023/05/18 04:53:33;;;;;;;0.40;0.40;;;;;;;12.44;100.00;94857.50;5072762;28;20818;-58
2023/05/18 04:56:02;;;;;;;0.73;0.70;;;;;;;12.58;100.00;94845.03;5072034;28;20430;-58
2023/05/18 04:58:30;;;;;;;0.40;0.30;;;;;;;12.62;100.00;94850.56;5071152;28;20468;-58
2023/05/18 05:00:58;;;;;;;0.30;0.23;;;;;;;13.06;100.00;94850.00;5071040;28;20444;-58
2023/05/18 05:03:28;;;;;;;0.40;0.30;;;;;;;12.96;100.00;94858.16;5057804;28;20468;-58
2023/05/18 05:05:57;;;;;;;0.40;0.30;;;;;;;13.18;100.00;94850.34;5044151;28;20997;-57
2023/05/18 05:08:25;;;;;;;1.80;0.50;;;;;;;13.36;100.00;94857.41;5070925;28;20517;-57
2023/05/18 05:10:54;;;;;;;0.30;0.20;;;;;;;13.60;100.00;94847.31;5071195;28;20430;-57
2023/05/18 05:13:22;;;;;;;0.50;0.40;;;;;;;13.38;100.00;94857.91;5070588;28;20437;-57
2023/05/18 05:15:50;;;;;;;0.73;0.40;;;;;;;13.91;100.00;94852.78;5071271;28;20448;-57
2023/05/18 05:18:19;;;;;;;2.03;1.43;;;;;;;13.90;100.00;94827.22;5071087;28;20470;-57
2023/05/18 05:20:50;;;;;;;0.30;0.30;;;;;;;14.40;100.00;94849.25;5071729;28;20441;-57
2023/05/18 05:23:18;;;;;;;0.40;0.30;;;;;;;13.71;100.00;94710.19;5071848;28;20490;-57
2023/05/18 05:25:47;;;;;;;0.53;0.47;;;;;;;14.47;100.00;94852.28;5071611;28;20972;-57
2023/05/18 05:28:15;;;;;;;2.00;0.43;;;;;;;14.46;100.00;94840.03;5071430;28;20485;-57
2023/05/18 05:30:43;;;;;;;1.13;1.13;;;;;;;14.50;100.00;94849.00;5071808;28;20484;-57
2023/05/18 05:33:12;;;;;;;0.60;0.37;;;;;;;14.48;100.00;94851.19;5071114;28;20540;-57
2023/05/18 05:35:40;;;;;;;0.50;0.33;;;;;;;14.62;100.00;94790.56;5071902;28;20434;-57
2023/05/18 05:38:10;;;;;;;0.87;0.87;;;;;;;14.97;100.00;94844.84;5057562;28;20503;-57
2023/05/18 05:40:39;;;;;;;0.63;0.60;;;;;;;14.89;100.00;94851.72;5071221;28;20647;-57
2023/05/18 05:43:07;;;;;;;0.53;0.53;;;;;;;15.07;100.00;94847.25;5071205;28;20512;-57
2023/05/18 05:45:35;;;;;;;1.63;1.63;;;;;;;14.70;100.00;94823.72;5071659;28;20441;-57
2023/05/18 05:48:04;;;;;;;1.53;1.53;;;;;;;14.40;100.00;94847.38;5071282;28;21048;-57
2023/05/18 05:50:33;;;;;;;1.00;0.60;;;;;;;14.33;100.00;94846.22;5071465;28;20484;-57
2023/05/18 05:53:01;;;;;;;2.50;1.13;;;;;;;14.80;100.00;94852.78;5071661;28;20438;-57
2023/05/18 05:55:31;;;;;;;1.47;1.47;;;;;;;14.86;100.00;94844.34;5071160;28;20440;-57
2023/05/18 05:58:00;;;;;;;1.10;0.80;;;;;;;15.18;100.00;94848.53;5071337;28;20525;-58
2023/05/18 06:00:28;;;;;;;2.87;1.30;;;;;;;14.91;100.00;94849.53;5071609;28;20556;-57
2023/05/18 06:02:57;;;;;;;0.57;0.57;;;;;;;15.40;100.00;94856.47;5071078;28;20441;-57
2023/05/18 06:05:26;;;;;;;0.93;0.93;;;;;;;14.87;100.00;94853.13;5071811;28;20801;-57
2023/05/18 06:07:55;;;;;;;3.17;0.80;;;;;;;14.88;100.00;94855.47;5071714;28;20502;-57
2023/05/18 06:10:23;;;;;;;3.90;0.50;;;;;;;15.10;100.00;94830.63;5071160;28;20430;-58
2023/05/18 06:12:53;;;;;;;1.33;0.50;;;;;;;15.45;100.00;94859.03;5071486;28;20495;-59
2023/05/18 06:15:21;;;;;;;0.50;0.50;;;;;;;16.05;100.00;94864.47;5071087;28;20434;-59
2023/05/18 06:17:50;;;;;;;0.60;0.60;;;;;;;16.59;100.00;94849.69;5071440;28;20442;-60
2023/05/18 06:20:18;;;;;;;0.40;0.30;;;;;;;16.71;100.00;94852.47;5070887;28;20477;-60
2023/05/18 06:22:47;;;;;;;0.53;0.43;;;;;;;17.18;100.00;94839.88;5071029;28;20441;-60
2023/05/18 06:25:16;;;;;;;1.03;0.50;;;;;;;18.00;100.00;94839.28;5071086;28;20446;-60
2023/05/18 06:27:45;;;;;;;0.50;0.43;;;;;;;18.61;94.82;94836.88;5071074;28;20496;-60
2023/05/18 06:30:16;;;;;;;0.60;0.50;;;;;;;18.10;94.47;94843.44;5071203;28;20934;-61
2023/05/18 06:32:44;;;;;;;0.60;0.40;;;;;;;18.09;96.03;94839.22;5071019;28;20445;-61
2023/05/18 06:35:12;;;;;;;0.80;0.80;;;;;;;18.06;96.14;94853.28;5075227;28;20466;-62
2023/05/18 06:37:41;;;;;;;0.90;0.90;;;;;;;17.91;99.44;94846.56;5075017;28;20932;-62
2023/05/18 06:40:11;;;;;;;1.27;0.70;;;;;;;17.39;100.00;94850.66;5074994;28;20469;-62
2023/05/18 06:42:40;;;;;;;1.93;1.83;;;;;;;17.18;100.00;94845.22;5074867;28;20445;-63
2023/05/18 06:45:09;;;;;;;0.87;0.57;;;;;;;16.80;100.00;94855.91;5075220;28;20851;-63
2023/05/18 06:47:38;;;;;;;0.63;0.60;;;;;;;17.23;100.00;94857.69;5074844;28;20440;-63
2023/05/18 06:50:07;;;;;;;0.50;0.40;;;;;;;18.29;100.00;94849.16;5075236;28;20456;-62
2023/05/18 06:52:36;;;;;;;0.60;0.60;;;;;;;18.63;98.32;94850.75;5074518;28;20946;-62
2023/05/18 06:55:06;;;;;;;1.23;1.13;;;;;;;18.29;99.77;94852.59;5074797;28;20491;-61
2023/05/18 06:57:34;;;;;;;0.70;0.70;;;;;;;19.07;97.09;94849.19;5074516;28;20834;-60
2023/05/18 07:00:06;;;;;;;3.77;1.07;;;;;;;19.33;92.43;94849.66;5074504;28;20477;-59
2023/05/18 07:02:34;;;;;;;0.40;0.30;;;;;;;20.10;90.22;94849.41;5074391;28;20441;-59
2023/05/18 07:05:07;;;;;;;0.70;0.47;;;;;;;20.52;88.83;94849.84;5074689;28;20442;-59
2023/05/18 07:07:36;;;;;;;6.47;1.43;;;;;;;19.86;85.74;94862.88;5049753;28;20437;-58
2023/05/18 07:10:06;;;;;;;3.43;0.50;;;;;;;20.12;84.09;94855.22;5074635;28;20437;-59
2023/05/18 07:12:34;;;;;;;0.50;0.50;;;;;;;20.56;84.72;94858.81;5074631;28;20436;-58
2023/05/18 07:15:03;;;;;;;0.63;0.63;;;;;;;21.05;82.17;94850.50;5073118;28;20448;-59
2023/05/18 07:17:31;;;;;;;0.67;0.67;;;;;;;20.84;79.37;94794.16;5074503;28;20548;-59
2023/05/18 07:19:59;;;;;;;0.40;0.30;;;;;;;21.72;76.24;94852.16;5073792;28;20480;-59
2023/05/18 07:22:29;;;;;;;1.67;0.50;;;;;;;21.47;82.64;94846.97;5074203;28;20973;-75
2023/05/18 07:24:59;;;;;;;1.10;1.10;;;;;;;21.80;80.61;94849.28;5073948;28;20449;-75
2023/05/18 07:27:28;;;;;;;1.63;0.70;;;;;;;21.75;79.31;94846.06;5068656;28;20473;-76
2023/05/18 07:29:56;;;;;;;0.50;0.50;;;;;;;21.91;78.93;94850.31;5074466;28;20881;-75
2023/05/18 07:32:24;;;;;;;0.97;0.97;;;;;;;21.82;76.47;94847.00;5074407;28;20438;-74
2023/05/18 07:34:52;;;;;;;4.93;0.40;;;;;;;21.45;75.14;94843.81;5073497;28;20950;-60
2023/05/18 07:37:22;;;;;;;0.70;0.60;;;;;;;21.71;74.25;94848.66;5073968;28;20434;-61
2023/05/18 07:39:52;;;;;;;0.50;0.50;;;;;;;22.34;71.69;94829.66;5073727;28;20473;-61
2023/05/18 07:42:20;;;;;;;0.80;0.33;;;;;;;22.73;69.94;94842.81;5073945;28;20445;-61
2023/05/18 07:44:48;;;;;;;0.50;0.30;;;;;;;23.30;68.21;94833.78;5072173;28;20438;-62
2023/05/18 07:47:17;;;;;;;0.40;0.40;;;;;;;23.50;67.13;94833.75;5073536;28;20444;-61
2023/05/18 07:49:45;;;;;;;0.70;0.63;;;;;;;23.66;68.47;94832.47;5073559;28;20430;-61
2023/05/18 07:52:13;;;;;;;0.80;0.40;;;;;;;23.78;65.67;94834.94;5073687;28;20473;-60
2023/05/18 07:54:42;;;;;;;0.40;0.30;;;;;;;23.00;66.46;94830.16;5073929;28;20769;-61
2023/05/18 07:57:12;;;;;;;0.50;0.30;;;;;;;23.64;65.35;94836.66;5073105;28;20453;-61
2023/05/18 07:59:40;;;;;;;1.07;0.47;;;;;;;23.45;64.90;94840.25;5073326;28;20465;-63
2023/05/18 08:02:08;;;;;;;0.40;0.37;;;;;;;23.15;68.55;94810.34;5072827;28;20503;-62
2023/05/18 08:04:37;;;;;;;0.40;0.30;;;;;;;22.58;68.95;94781.53;5073670;28;20438;-62
2023/05/18 08:07:05;;;;;;;0.50;0.40;;;;;;;23.41;65.64;94844.81;5073290;28;20469;-62
2023/05/18 08:09:33;;;;;;;0.97;0.97;;;;;;;23.36;63.28;94837.78;5073703;28;20453;-63
2023/05/18 08:12:02;;;;;;;0.43;0.40;;;;;;;22.33;66.62;94846.97;5073584;28;20470;-63
2023/05/18 08:14:32;;;;;;;0.40;0.30;;;;;;;21.74;68.68;94836.41;5073455;28;20532;-62
2023/05/18 08:17:00;;;;;;;0.60;0.60;;;;;;;22.30;70.74;94837.66;5073221;28;20448;-62
2023/05/18 08:19:28;;;;;;;0.57;0.57;;;;;;;22.88;68.75;94857.38;5073393;28;20442;-63
2023/05/18 08:21:57;;;;;;;0.40;0.40;;;;;;;22.68;66.55;94828.81;5073158;28;20438;-63
2023/05/18 08:24:25;;;;;;;0.80;0.80;;;;;;;22.63;67.04;94865.00;5073116;28;20465;-62
2023/05/18 08:26:53;;;;;;;0.40;0.30;;;;;;;22.63;65.86;94865.00;5072645;28;20473;-62
2023/05/18 08:29:22;;;;;;;0.50;0.50;;;;;;;22.51;66.86;94867.81;5072712;28;20437;-62
2023/05/18 08:31:52;;;;;;;0.40;0.40;;;;;;;22.25;70.06;94870.34;5072837;28;20470;-61
2023/05/18 08:34:20;;;;;;;0.60;0.40;;;;;;;22.51;67.19;94873.22;5073188;28;20465;-60
2023/05/18 08:36:49;;;;;;;0.30;0.30;;;;;;;22.18;68.70;94881.00;5072662;28;20437;-60
2023/05/18 08:39:17;;;;;;;1.13;0.80;;;;;;;20.88;68.53;94886.59;5072650;28;20503;-60
2023/05/18 08:41:55;;;;;;;0.70;0.70;;;;;;;20.82;70.25;94872.59;5072817;28;21056;-61
2023/05/18 08:44:29;;;;;;;0.50;0.50;;;;;;;21.26;69.17;94854.53;5072509;28;20438;-61
2023/05/18 08:47:00;;;;;;;0.40;0.30;;;;;;;21.64;69.78;94897.06;5072536;28;20448;-61
2023/05/18 08:49:31;;;;;;;2.20;1.13;;;;;;;20.96;72.31;94909.13;5072424;28;20438;-63
2023/05/18 08:52:03;;;;;;;1.90;0.77;;;;;;;20.06;75.06;94896.16;5072539;28;20437;-64
2023/05/18 08:54:33;;;;;;;0.40;0.30;;;;;;;20.00;76.80;94865.22;5071964;28;20993;-65
2023/05/18 08:57:04;;;;;;;0.60;0.60;;;;;;;20.01;78.51;94907.16;5071909;28;20445;-65
2023/05/18 08:59:36;;;;;;;0.57;0.57;;;;;;;20.64;77.82;94910.97;5046774;28;20528;-66
2023/05/18 09:02:06;;;;;;;0.50;0.40;;;;;;;21.00;76.57;94907.34;5072114;28;20480;-66
2023/05/18 09:04:36;;;;;;;0.60;0.50;;;;;;;20.41;78.14;94917.97;5072601;28;20442;-67
2023/05/18 09:07:06;;;;;;;0.40;0.33;;;;;;;20.95;77.64;94918.38;5072340;28;20489;-66
2023/05/18 09:09:35;;;;;;;0.40;0.30;;;;;;;21.16;77.13;94905.47;5072225;28;20441;-66
2023/05/18 09:12:05;;;;;;;2.83;0.40;;;;;;;21.08;74.78;94903.72;5071940;28;20450;-66
2023/05/18 09:14:34;;;;;;;0.40;0.30;;;;;;;21.71;73.03;94907.22;5072370;28;20452;-65
2023/05/18 09:17:02;;;;;;;0.40;0.30;;;;;;;22.05;69.21;94898.44;5074253;28;20433;-63
2023/05/18 09:19:32;;;;;;;1.27;0.30;;;;;;;22.00;67.58;94899.50;5074738;28;20857;-64
2023/05/18 09:22:01;;;;;;;0.30;0.20;;;;;;;22.41;68.18;94903.50;5072550;28;20473;-64
2023/05/18 09:24:29;;;;;;;0.60;0.50;;;;;;;22.62;67.94;94900.44;5072492;28;20523;-62
2023/05/18 09:26:58;;;;;;;0.50;0.43;;;;;;;22.42;66.32;94891.53;5071232;28;20977;-62
2023/05/18 09:29:26;;;;;;;0.70;0.70;;;;;;;22.11;66.98;94899.75;5071490;28;20438;-63
2023/05/18 09:31:55;;;;;;;0.40;0.30;;;;;;;22.92;68.05;94889.88;5072127;28;20437;-64
2023/05/18 09:34:23;;;;;;;0.43;0.43;;;;;;;23.31;67.65;94894.84;5071856;28;20528;-52
2023/05/18 09:36:55;;;;;;;0.40;0.30;;;;;;;23.13;69.14;94901.06;5071965;28;20885;-53
2023/05/18 09:39:24;;;;;;;0.50;0.40;;;;;;;22.97;68.35;94903.09;5071248;28;20448;-53
2023/05/18 09:41:55;;;;;;;0.60;0.60;;;;;;;22.65;67.36;94902.44;5071105;28;20944;-53
2023/05/18 09:44:31;;;;;;;0.90;0.37;;;;;;;22.35;68.47;94904.88;5070691;28;20825;-54
2023/05/18 09:47:00;;;;;;;1.00;1.00;;;;;;;21.80;72.12;94914.03;5071636;28;20499;-53
2023/05/18 09:49:29;;;;;;;1.80;0.33;;;;;;;20.90;76.97;94913.97;5071189;28;20475;-53
2023/05/18 09:51:59;;;;;;;1.80;0.87;;;;;;;20.92;84.31;94910.97;5059747;28;20880;-52
2023/05/18 09:54:28;;;;;;;0.57;0.53;;;;;;;20.84;88.67;94912.69;5070527;28;20452;-53
2023/05/18 09:56:57;;;;;;;0.60;0.60;;;;;;;21.55;92.39;94914.56;5071570;28;20441;-67
2023/05/18 09:59:38;;;;;;;0.40;0.40;;;;;;;21.52;88.90;94907.94;5071803;28;20436;-61
2023/05/18 10:02:07;;;;;;;0.60;0.60;;;;;;;21.92;87.99;94911.25;5071123;28;20477;-61
2023/05/18 10:04:37;;;;;;;2.30;0.30;;;;;;;21.22;81.93;94904.09;5071442;28;20441;-61
2023/05/18 10:07:14;;;;;;;2.53;1.37;;;;;;;20.92;85.80;94914.44;5070274;28;20473;-61
2023/05/18 10:09:45;;;;;;;1.10;1.07;;;;;;;21.46;83.61;94912.03;5071537;28;20445;-61
2023/05/18 10:12:15;;;;;;;0.50;0.40;;;;;;;21.46;84.37;94915.50;5071191;28;20444;-61
2023/05/18 10:14:44;;;;;;;0.40;0.30;;;;;;;21.11;84.34;94916.50;5071391;28;20437;-61
2023/05/18 10:17:13;;;;;;;0.50;0.43;;;;;;;21.93;84.60;94898.56;5070581;28;20430;-61
2023/05/18 10:19:45;;;;;;;0.50;0.30;;;;;;;22.64;82.12;94896.25;5070998;28;20442;-61
2023/05/18 10:22:17;;;;;;;0.40;0.30;;;;;;;22.97;78.15;94908.50;5071251;28;20568;-62
2023/05/18 10:24:51;;;;;;;0.70;0.40;;;;;;;22.13;72.95;94910.97;5071086;28;20498;-62
2023/05/18 10:27:24;;;;;;;0.50;0.30;;;;;;;22.75;73.39;94902.66;5070889;28;20473;-62
2023/05/18 10:29:53;;;;;;;0.50;0.47;;;;;;;23.48;71.20;94898.25;5070776;28;20976;-62
2023/05/18 10:32:24;;;;;;;0.50;0.30;;;;;;;23.38;69.54;94896.91;5071089;28;20454;-63
2023/05/18 10:34:53;;;;;;;0.60;0.60;;;;;;;23.73;70.18;94886.69;5070898;28;20495;-63
2023/05/18 10:37:25;;;;;;;1.00;1.00;;;;;;;24.35;67.58;94890.75;5071251;28;20445;-63
2023/05/18 10:39:56;;;;;;;0.40;0.40;;;;;;;24.01;62.15;94879.00;5071132;28;20433;-65
2023/05/18 10:42:26;;;;;;;0.43;0.33;;;;;;;23.82;62.37;94857.47;5070913;28;20472;-64
2023/05/18 10:44:56;;;;;;;0.40;0.30;;;;;;;24.46;61.85;94888.16;5045610;28;20465;-63
2023/05/18 10:47:25;;;;;;;0.47;0.40;;;;;;;24.49;59.41;94882.78;5071218;28;20495;-63
2023/05/18 10:49:54;;;;;;;0.40;0.30;;;;;;;24.49;59.27;94835.94;5070801;28;20445;-62
2023/05/18 10:52:30;;;;;;;0.40;0.30;;;;;;;24.26;59.79;94875.91;5068343;28;20441;-63
2023/05/18 10:54:59;;;;;;;0.40;0.30;;;;;;;24.46;58.71;94872.69;5062015;28;20518;-64
2023/05/18 10:57:34;;;;;;;0.40;0.33;;;;;;;25.01;59.28;94881.13;5070414;28;20449;-59
2023/05/18 11:00:06;;;;;;;0.40;0.30;;;;;;;24.78;54.78;94878.53;5070575;28;20469;-59
2023/05/18 11:02:35;;;;;;;0.30;0.20;;;;;;;25.00;53.16;94866.78;5070613;28;20473;-59
2023/05/18 11:05:06;;;;;;;0.40;0.30;;;;;;;25.47;52.18;94876.97;5070590;28;20444;-62
2023/05/18 11:07:36;;;;;;;0.30;0.30;;;;;;;24.99;49.15;94867.94;5070975;28;20918;-58
2023/05/18 11:10:10;;;;;;;0.70;0.30;;;;;;;24.75;51.34;94883.88;5070769;28;20437;-58
2023/05/18 11:12:40;;;;;;;0.40;0.30;;;;;;;24.45;47.20;94856.81;5050239;28;20442;-58
2023/05/18 11:15:09;;;;;;;0.40;0.30;;;;;;;24.46;50.67;94877.34;5070211;28;20442;-58
2023/05/18 11:17:38;;;;;;;0.77;0.40;;;;;;;24.55;59.21;94894.88;5060245;28;20446;-58
2023/05/18 11:20:14;;;;;;;0.30;0.20;;;;;;;24.60;58.27;94886.41;5070964;28;20441;-59
2023/05/18 11:22:48;;;;;;;0.40;0.30;;;;;;;24.22;61.24;94894.81;5074470;28;20485;-59
2023/05/18 11:25:39;;;;;;;0.40;0.30;;;;;;;24.57;61.12;94897.19;5073583;28;20440;-59
2023/05/18 11:28:09;;;;;;;0.50;0.37;;;;;;;23.93;63.96;94898.97;5073993;28;20531;-59
2023/05/18 11:30:49;;;;;;;5.57;0.60;;;;;;;22.57;65.97;94909.59;5074218;28;20490;-58
2023/05/18 11:33:23;;;;;;;0.57;0.57;;;;;;;22.75;67.59;94905.38;5073550;28;20437;-58
2023/05/18 11:35:56;;;;;;;0.50;0.50;;;;;;;22.49;65.88;94907.88;5074023;28;20503;-60
2023/05/18 11:38:42;;;;;;;0.57;0.57;;;;;;;21.78;68.35;94923.59;5073944;28;20918;-59
2023/05/18 11:41:27;;;;;;;0.70;0.60;;;;;;;20.90;70.51;94922.84;5073625;28;20444;-58